Benito Buono — IBDH — position and weather

sailwx.info

Track history (hours):
 
Tides and Currents Weather Stations Pressure Air Temp Water Temp Dewpoint Dewpoint Depression Visibility Wind Speed Wind Dir Waves Ship Positions

Benito Buono

Last reported at 2018-Jul-18 19:46 UTC. Time now 2018-Jul-18 23:42 UTC.
Position N 40°45' E 013°56'.

Length 74 m; draft 4 m.

Type: Passenger vessel. MMSI: 247007400.

Date/timePositionNaut miles runAvg speedWind from/ knotsBaromVisibWave heightAir tempDewpointWater temp
2018-Jul-18 19:46N 40°45' E 013°56'0 0.2
2018-Jul-18 19:31N 40°45' E 013°56'510.8
2018-Jul-18 19:00N 40°46' E 014°03'4 8.1
2018-Jul-18 18:30N 40°49' E 014°07'0 0.0
2018-Jul-18 18:01N 40°49' E 014°07'1 2.5
2018-Jul-18 17:31N 40°48' E 014°06'510.4
2018-Jul-18 17:00N 40°46' E 013°60'3 6.2
2018-Jul-18 16:31N 40°45' E 013°56'0 0.0
2018-Jul-18 16:00N 40°45' E 013°56'0 0.2
2018-Jul-18 15:30N 40°45' E 013°56'611.2
2018-Jul-18 15:00N 40°47' E 014°04'4 7.8
2018-Jul-18 14:30N 40°49' E 014°07'5 5.2
2018-Jul-18 13:30N 40°46' E 014°01'4 8.3
2018-Jul-18 13:00N 40°45' E 013°56'0 0.1
2018-Jul-18 12:30N 40°45' E 013°56'510.7
2018-Jul-18 12:01N 40°47' E 014°03'4 8.4
2018-Jul-18 11:30N 40°49' E 014°07'0 0.0
2018-Jul-18 10:30N 40°49' E 014°07'1 2.4
2018-Jul-18 10:00N 40°48' E 014°06'510.6
2018-Jul-18 09:30N 40°46' E 013°60'3 6.0
2018-Jul-18 09:00N 40°45' E 013°56'3 6.5
2018-Jul-18 08:30N 40°46' E 014°00'510.0
2018-Jul-18 08:00N 40°48' E 014°06'1 2.9
2018-Jul-18 07:30N 40°49' E 014°07'1 2.2
2018-Jul-18 07:01N 40°49' E 014°06'510.1
2018-Jul-18 06:30N 40°46' E 014°00'3 6.2
2018-Jul-18 05:58N 40°45' E 013°56'0 0.0
2018-Jul-18 05:30N 40°45' E 013°56'2 4.1
2018-Jul-18 05:00N 40°46' E 013°58'611.4
2018-Jul-18 04:30N 40°47' E 014°06'3 5.1
2018-Jul-18 04:00N 40°49' E 014°07'0 0.1
2018-Jul-18 03:30N 40°49' E 014°07'4 8.4
2018-Jul-18 03:00N 40°47' E 014°03'510.6
2018-Jul-18 02:30N 40°45' E 013°56'0 0.0
2018-Jul-17 19:46N 40°45' E 013°56'0 0.1
2018-Jul-17 19:29N 40°45' E 013°56'510.7
2018-Jul-17 19:00N 40°46' E 014°03'4 8.6
2018-Jul-17 18:30N 40°49' E 014°07'0 0.0
2018-Jul-17 17:59N 40°49' E 014°07'3 5.6
2018-Jul-17 17:30N 40°47' E 014°06'612.0
2018-Jul-17 17:00N 40°46' E 013°58'2 3.1
2018-Jul-17 16:27N 40°45' E 013°56'0 0.0
2018-Jul-17 16:00N 40°45' E 013°56'1 1.5
2018-Jul-17 15:29N 40°45' E 013°57'511.1
2018-Jul-17 15:00N 40°47' E 014°04'4 7.1
2018-Jul-17 14:28N 40°49' E 014°07'1 2.9
2018-Jul-17 14:00N 40°48' E 014°06'510.4
2018-Jul-17 13:30N 40°46' E 013°60'3 6.3
2018-Jul-17 13:00N 40°45' E 013°56'0 0.6
2018-Jul-17 12:30N 40°45' E 013°57'511.0
2018-Jul-17 12:00N 40°47' E 014°04'4 7.8
2018-Jul-17 11:30N 40°49' E 014°07'0 0.0
2018-Jul-17 11:01N 40°49' E 014°07'0 0.0
2018-Jul-17 10:30N 40°49' E 014°07'2 3.3
2018-Jul-17 10:00N 40°48' E 014°06'510.5
2018-Jul-17 09:30N 40°46' E 013°60'3 5.8
2018-Jul-17 09:00N 40°45' E 013°56'2 4.9
2018-Jul-17 08:30N 40°46' E 013°59'510.9
2018-Jul-17 08:00N 40°47' E 014°06'2 4.4
2018-Jul-17 07:30N 40°49' E 014°07'1 2.7
2018-Jul-17 07:00N 40°48' E 014°06'510.2
2018-Jul-17 06:30N 40°46' E 014°00'3 6.3
2018-Jul-17 06:00N 40°45' E 013°56'0 0.0
2018-Jul-17 05:30N 40°45' E 013°56'3 6.7
2018-Jul-17 05:00N 40°46' E 014°00'5 9.9
2018-Jul-17 04:30N 40°48' E 014°06'1 2.6
2018-Jul-17 04:00N 40°49' E 014°07'1 1.0
2018-Jul-17 03:30N 40°49' E 014°06'5 9.5
2018-Jul-17 03:00N 40°46' E 014°01'4 8.4
2018-Jul-17 02:30N 40°45' E 013°56'0 0.2
2018-Jul-17 02:00N 40°45' E 013°56'0 0.0
2018-Jul-16 19:45N 40°45' E 013°56'0 0.3
2018-Jul-16 19:30N 40°45' E 013°56'510.5
2018-Jul-16 19:00N 40°47' E 014°03'4 8.5
2018-Jul-16 18:30N 40°49' E 014°07'0 0.0
2018-Jul-16 17:59N 40°49' E 014°07'1 3.1
2018-Jul-16 17:30N 40°48' E 014°06'510.6
2018-Jul-16 17:01N 40°46' E 013°60'3 5.8
2018-Jul-16 16:30N 40°45' E 013°56'0 0.0
2018-Jul-16 16:00N 40°45' E 013°56'0 0.6
2018-Jul-16 15:30N 40°45' E 013°57'611.6
2018-Jul-16 15:00N 40°47' E 014°04'4 7.5
2018-Jul-16 14:30N 40°49' E 014°07'1 1.6
2018-Jul-16 14:00N 40°49' E 014°06'5 9.8
2018-Jul-16 13:30N 40°46' E 014°01'4 7.4
2018-Jul-16 13:00N 40°45' E 013°56'0 0.5
2018-Jul-16 12:30N 40°45' E 013°57'611.1
2018-Jul-16 12:00N 40°47' E 014°04'4 7.8
2018-Jul-16 11:30N 40°49' E 014°07'0 0.0
2018-Jul-16 11:00N 40°49' E 014°07'0 0.0
2018-Jul-16 10:31N 40°49' E 014°07'1 2.3
2018-Jul-16 10:00N 40°48' E 014°06'510.1
2018-Jul-16 09:31N 40°46' E 014°00'3 6.6
2018-Jul-16 09:00N 40°45' E 013°56'2 3.0
2018-Jul-16 08:30N 40°46' E 013°58'611.9
2018-Jul-16 08:01N 40°47' E 014°06'3 6.0
2018-Jul-16 07:30N 40°49' E 014°07'1 2.8
2018-Jul-16 07:00N 40°48' E 014°06'510.3
2018-Jul-16 06:31N 40°46' E 013°60'3 6.2
2018-Jul-16 06:01N 40°45' E 013°56'0 0.0
2018-Jul-16 05:30N 40°45' E 013°56'2 4.5
2018-Jul-16 05:01N 40°46' E 013°59'611.1
2018-Jul-16 04:30N 40°47' E 014°06'2 4.6
2018-Jul-16 04:00N 40°49' E 014°07'0 0.2
2018-Jul-16 03:30N 40°49' E 014°07'4 8.8
2018-Jul-16 03:00N 40°46' E 014°03'510.0
2018-Jul-16 02:30N 40°45' E 013°56'0 0.2
2018-Jul-16 02:00N 40°45' E 013°56'0 0.0
2018-Jul-15 19:55N 40°45' E 013°56'0 0.4
2018-Jul-15 19:30N 40°45' E 013°56'511.1
2018-Jul-15 19:00N 40°46' E 014°03'4 8.2
2018-Jul-15 18:30N 40°49' E 014°07'0 0.0
2018-Jul-15 18:00N 40°49' E 014°07'2 4.4
2018-Jul-15 17:30N 40°47' E 014°06'611.4
2018-Jul-15 17:00N 40°46' E 013°59'2 4.5
2018-Jul-15 16:30N 40°45' E 013°56'0 0.0
2018-Jul-15 16:00N 40°45' E 013°56'0 0.3
2018-Jul-15 15:30N 40°45' E 013°57'611.5
2018-Jul-15 15:00N 40°47' E 014°04'4 7.8
2018-Jul-15 14:30N 40°49' E 014°07'1 1.8
2018-Jul-15 14:00N 40°49' E 014°06'510.0
2018-Jul-15 13:30N 40°46' E 014°00'4 7.0
2018-Jul-15 13:00N 40°45' E 013°56'0 0.1
2018-Jul-15 12:30N 40°45' E 013°56'510.5
2018-Jul-15 12:00N 40°47' E 014°03'4 8.5
2018-Jul-15 11:30N 40°49' E 014°07'0 0.0
2018-Jul-15 11:00N 40°49' E 014°07'0 0.0
2018-Jul-15 10:30N 40°49' E 014°07'2 3.3
2018-Jul-15 10:00N 40°48' E 014°06'510.8
2018-Jul-15 09:30N 40°46' E 013°60'3 5.6
2018-Jul-15 09:00N 40°45' E 013°56'2 4.7
2018-Jul-15 08:30N 40°46' E 013°59'611.0
2018-Jul-15 08:00N 40°48' E 014°06'2 4.1
2018-Jul-15 07:30N 40°49' E 014°07'3 6.1
2018-Jul-15 07:00N 40°47' E 014°06'612.1
2018-Jul-15 06:31N 40°46' E 013°58'2 3.1
2018-Jul-15 06:00N 40°45' E 013°56'0 0.2
2018-Jul-15 05:30N 40°45' E 013°56'0 0.0
2018-Jul-14 19:52N 40°45' E 013°56'0 0.5
2018-Jul-14 19:30N 40°45' E 013°57'611.4
2018-Jul-14 19:00N 40°47' E 014°04'4 7.8
2018-Jul-14 18:30N 40°49' E 014°07'0 0.0
2018-Jul-14 18:00N 40°49' E 014°07'1 2.8
2018-Jul-14 17:30N 40°48' E 014°06'510.7
2018-Jul-14 17:00N 40°46' E 013°60'3 5.9
2018-Jul-14 16:30N 40°45' E 013°56'0 0.0
2018-Jul-14 16:00N 40°45' E 013°56'3 5.7
2018-Jul-14 15:30N 40°46' E 013°60'510.5
2018-Jul-14 15:00N 40°48' E 014°06'1 1.1
2018-Jul-14 14:00N 40°49' E 014°06'5 9.8
2018-Jul-14 13:30N 40°46' E 014°01'4 7.6
2018-Jul-14 13:00N 40°45' E 013°56'1 1.9
2018-Jul-14 12:30N 40°45' E 013°57'611.8
2018-Jul-14 12:00N 40°46' E 014°05'3 6.7
2018-Jul-14 11:30N 40°49' E 014°07'0 0.0
2018-Jul-14 11:00N 40°49' E 014°07'0 0.0
2018-Jul-14 10:30N 40°49' E 014°07'3 6.6
2018-Jul-14 10:00N 40°46' E 014°05'611.8
2018-Jul-14 09:30N 40°45' E 013°57'1 2.0
2018-Jul-14 09:00N 40°45' E 013°56'4 7.3
2018-Jul-14 08:30N 40°46' E 014°01'5 9.7
2018-Jul-14 08:00N 40°49' E 014°06'1 1.7
2018-Jul-14 07:30N 40°49' E 014°07'3 5.0
2018-Jul-14 07:00N 40°47' E 014°06'611.5
2018-Jul-14 06:30N 40°46' E 013°59'2 4.3
2018-Jul-14 06:00N 40°45' E 013°56'0 0.0
2018-Jul-14 05:30N 40°45' E 013°56'2 4.7
2018-Jul-14 05:00N 40°46' E 013°59'611.1
2018-Jul-14 04:30N 40°47' E 014°06'2 4.3
2018-Jul-14 04:00N 40°49' E 014°07'0 0.1
2018-Jul-14 03:30N 40°49' E 014°07'4 8.5
2018-Jul-14 03:00N 40°46' E 014°03'510.5
2018-Jul-14 02:30N 40°45' E 013°56'0 0.2
2018-Jul-14 01:58N 40°45' E 013°56'0 0.0
2018-Jul-13 20:00N 40°45' E 013°56'0 0.1
2018-Jul-13 19:30N 40°45' E 013°56'510.6
2018-Jul-13 19:00N 40°47' E 014°03'4 8.4
2018-Jul-13 18:30N 40°49' E 014°07'0 0.0
2018-Jul-13 18:00N 40°49' E 014°07'1 2.3
2018-Jul-13 17:30N 40°48' E 014°06'510.2
2018-Jul-13 17:00N 40°46' E 014°00'3 6.6
2018-Jul-13 16:30N 40°45' E 013°56'0 0.0
2018-Jul-13 16:00N 40°45' E 013°56'3 5.5
2018-Jul-13 15:30N 40°46' E 013°60'510.5
2018-Jul-13 15:00N 40°48' E 014°06'2 1.8
2018-Jul-13 14:00N 40°49' E 014°07'5 9.5
2018-Jul-13 13:30N 40°46' E 014°02'5 9.0
2018-Jul-13 13:00N 40°45' E 013°56'0 0.1
2018-Jul-13 12:30N 40°45' E 013°56'510.9
2018-Jul-13 12:00N 40°47' E 014°03'4 8.2
2018-Jul-13 11:30N 40°49' E 014°07'0 0.0
2018-Jul-13 11:00N 40°49' E 014°07'0 0.0
2018-Jul-13 10:30N 40°49' E 014°07'4 7.5
2018-Jul-13 10:00N 40°46' E 014°04'611.7
2018-Jul-13 09:30N 40°45' E 013°57'0 0.5
2018-Jul-13 09:00N 40°45' E 013°56'4 7.4
2018-Jul-13 08:30N 40°46' E 014°01'5 9.6
2018-Jul-13 08:01N 40°49' E 014°06'1 1.9
2018-Jul-13 07:30N 40°49' E 014°07'1 2.5
2018-Jul-13 07:00N 40°48' E 014°06'5 9.7
2018-Jul-13 06:30N 40°46' E 014°00'3 7.0
2018-Jul-13 06:00N 40°45' E 013°56'0 0.0
2018-Jul-13 05:30N 40°45' E 013°56'3 6.2
2018-Jul-13 05:01N 40°46' E 013°60'5 9.9
2018-Jul-13 04:30N 40°48' E 014°06'2 3.3
2018-Jul-13 04:00N 40°49' E 014°07'1 1.3
2018-Jul-13 03:30N 40°49' E 014°06'5 9.4
2018-Jul-13 03:00N 40°47' E 014°01'4 7.7
2018-Jul-13 02:29N 40°45' E 013°56'0 0.0
2018-Jul-12 19:52N 40°45' E 013°56'1 1.7
2018-Jul-12 19:30N 40°45' E 013°57'611.7
2018-Jul-12 19:00N 40°47' E 014°04'4 7.0
2018-Jul-12 18:30N 40°49' E 014°07'0 0.0
2018-Jul-12 18:00N 40°49' E 014°07'1 2.0
2018-Jul-12 17:30N 40°49' E 014°06'510.2
2018-Jul-12 16:59N 40°46' E 013°60'3 6.6
2018-Jul-12 16:30N 40°45' E 013°56'0 0.0
2018-Jul-12 16:00N 40°45' E 013°56'0 0.1
2018-Jul-12 15:30N 40°45' E 013°56'510.6
2018-Jul-12 15:00N 40°47' E 014°03'4 8.4
2018-Jul-12 14:30N 40°49' E 014°07'1 2.0
2018-Jul-12 14:00N 40°49' E 014°06'510.0
2018-Jul-12 13:30N 40°46' E 014°00'4 7.0
2018-Jul-12 13:00N 40°45' E 013°56'3 6.5
2018-Jul-12 12:30N 40°46' E 014°00'510.2
2018-Jul-12 12:00N 40°48' E 014°06'1 2.1
2018-Jul-12 11:30N 40°49' E 014°07'0 0.0
2018-Jul-12 11:00N 40°49' E 014°07'0 0.0
2018-Jul-12 10:30N 40°49' E 014°07'1 2.2
2018-Jul-12 10:01N 40°48' E 014°06'5 9.9
2018-Jul-12 09:30N 40°46' E 014°00'3 6.7
2018-Jul-12 09:00N 40°45' E 013°56'2 3.0
2018-Jul-12 08:30N 40°46' E 013°58'611.8
2018-Jul-12 08:00N 40°47' E 014°06'3 6.1
2018-Jul-12 07:30N 40°49' E 014°07'1 2.3
2018-Jul-12 07:00N 40°48' E 014°06'510.3
2018-Jul-12 06:29N 40°46' E 013°60'3 6.3
2018-Jul-12 06:00N 40°45' E 013°56'0 0.0
2018-Jul-12 05:30N 40°45' E 013°56'2 3.9
2018-Jul-12 05:00N 40°46' E 013°58'611.5
2018-Jul-12 04:30N 40°47' E 014°06'3 5.3
2018-Jul-12 04:00N 40°49' E 014°07'0 0.2
2018-Jul-12 03:30N 40°49' E 014°07'5 9.4
2018-Jul-12 03:00N 40°46' E 014°02'5 8.5
2018-Jul-12 02:28N 40°45' E 013°56'0 0.0
2018-Jul-11 19:39N 40°45' E 013°56'0 0.1
2018-Jul-11 19:28N 40°45' E 013°56'511.3
2018-Jul-11 19:00N 40°47' E 014°03'4 6.8
2018-Jul-11 18:23N 40°49' E 014°07'0 0.0
2018-Jul-11 17:55N 40°49' E 014°07'1 2.3
2018-Jul-11 17:30N 40°49' E 014°06'610.3
2018-Jul-11 16:57N 40°46' E 013°60'3 6.1
2018-Jul-11 16:29N 40°45' E 013°56'0 0.0
2018-Jul-11 15:59N 40°45' E 013°56'0 0.1
2018-Jul-11 15:30N 40°45' E 013°56'611.2
2018-Jul-11 15:00N 40°47' E 014°03'4 7.5
2018-Jul-11 14:28N 40°49' E 014°07'2 3.6
2018-Jul-11 14:00N 40°48' E 014°06'510.9
2018-Jul-11 13:30N 40°46' E 013°59'3 5.4
2018-Jul-11 13:00N 40°45' E 013°56'0 0.6
2018-Jul-11 12:30N 40°45' E 013°57'611.6
2018-Jul-11 12:00N 40°47' E 014°04'4 7.4
2018-Jul-11 11:30N 40°49' E 014°07'0 0.0
2018-Jul-11 11:00N 40°49' E 014°07'0 0.0
2018-Jul-11 10:30N 40°49' E 014°07'2 3.4
2018-Jul-11 10:00N 40°48' E 014°06'510.7
2018-Jul-11 09:30N 40°46' E 013°59'3 5.5
2018-Jul-11 09:00N 40°45' E 013°56'2 3.5
2018-Jul-11 08:30N 40°46' E 013°58'611.5
2018-Jul-11 08:00N 40°47' E 014°06'3 5.8
2018-Jul-11 07:30N 40°49' E 014°07'1 1.9
2018-Jul-11 07:00N 40°49' E 014°06'5 9.9
2018-Jul-11 06:30N 40°46' E 014°00'4 7.1
2018-Jul-11 06:00N 40°45' E 013°56'0 0.0
2018-Jul-11 05:30N 40°45' E 013°56'2 4.5
2018-Jul-11 05:00N 40°46' E 013°59'611.1
2018-Jul-11 04:30N 40°47' E 014°06'2 4.7
2018-Jul-11 04:00N 40°49' E 014°07'0 0.9
2018-Jul-11 03:30N 40°49' E 014°06'5 9.6
2018-Jul-11 03:00N 40°47' E 014°01'4 8.4
2018-Jul-11 02:30N 40°45' E 013°56'0 0.2
2018-Jul-11 02:00N 40°45' E 013°56'0 0.0
2018-Jul-10 19:50N 40°45' E 013°56'1 1.4
2018-Jul-10 19:28N 40°45' E 013°57'611.9
2018-Jul-10 19:00N 40°47' E 014°04'4 6.9
2018-Jul-10 18:28N 40°49' E 014°07'0 0.0
2018-Jul-10 17:59N 40°49' E 014°07'1 2.8
2018-Jul-10 17:30N 40°48' E 014°06'510.7
2018-Jul-10 17:00N 40°46' E 013°60'3 5.8
2018-Jul-10 16:30N 40°45' E 013°56'0 0.0
2018-Jul-10 16:00N 40°45' E 013°56'0 0.1
2018-Jul-10 15:30N 40°45' E 013°56'611.5
2018-Jul-10 15:00N 40°46' E 014°04'4 8.0
2018-Jul-10 14:30N 40°49' E 014°07'0 0.3
2018-Jul-10 14:00N 40°49' E 014°07'5 9.9
2018-Jul-10 13:30N 40°46' E 014°02'4 8.8
2018-Jul-10 13:00N 40°45' E 013°56'0 0.1
2018-Jul-10 12:30N 40°45' E 013°56'510.4
2018-Jul-10 12:00N 40°47' E 014°03'4 8.4
2018-Jul-10 11:30N 40°49' E 014°07'0 0.0
2018-Jul-10 11:00N 40°49' E 014°07'0 0.0
2018-Jul-10 10:30N 40°49' E 014°07'2 3.3
2018-Jul-10 10:00N 40°48' E 014°06'510.7
2018-Jul-10 09:30N 40°46' E 013°59'3 5.6
2018-Jul-10 09:00N 40°45' E 013°56'2 4.5
2018-Jul-10 08:30N 40°46' E 013°59'511.0
2018-Jul-10 08:00N 40°47' E 014°06'2 4.7
2018-Jul-10 07:30N 40°49' E 014°07'1 1.8
2018-Jul-10 07:00N 40°49' E 014°06'510.0
2018-Jul-10 06:30N 40°46' E 014°01'4 7.0
2018-Jul-10 06:00N 40°45' E 013°56'0 0.0
2018-Jul-10 05:30N 40°45' E 013°56'2 4.4
2018-Jul-10 05:00N 40°46' E 013°59'611.1
2018-Jul-10 04:30N 40°47' E 014°06'3 5.1
2018-Jul-10 04:00N 40°49' E 014°07'0 0.3
2018-Jul-10 03:30N 40°49' E 014°07'5 9.6
2018-Jul-10 03:00N 40°47' E 014°02'4 8.2
2018-Jul-10 02:28N 40°45' E 013°56'0 0.0
2018-Jul-09 19:43N 40°45' E 013°56'0 0.1
2018-Jul-09 19:30N 40°45' E 013°56'510.8
2018-Jul-09 19:00N 40°47' E 014°03'4 8.4
2018-Jul-09 18:30N 40°49' E 014°07'0 0.0
2018-Jul-09 18:00N 40°49' E 014°07'1 1.8
2018-Jul-09 17:30N 40°49' E 014°06'510.0
2018-Jul-09 17:00N 40°46' E 014°00'4 7.1
2018-Jul-09 16:30N 40°45' E 013°56'0 0.0
2018-Jul-09 16:00N 40°45' E 013°56'0 0.1
2018-Jul-09 15:30N 40°45' E 013°56'510.8
2018-Jul-09 15:00N 40°47' E 014°03'4 8.4
2018-Jul-09 14:31N 40°49' E 014°07'1 1.1
2018-Jul-09 14:00N 40°49' E 014°06'510.0
2018-Jul-09 13:30N 40°46' E 014°01'4 7.6
2018-Jul-09 13:00N 40°45' E 013°56'0 0.1
2018-Jul-09 12:30N 40°45' E 013°56'611.2
2018-Jul-09 12:00N 40°47' E 014°03'4 7.9
2018-Jul-09 11:31N 40°49' E 014°07'0 0.0
2018-Jul-09 10:59N 40°49' E 014°07'0 0.0
2018-Jul-09 10:30N 40°49' E 014°07'2 4.6
2018-Jul-09 10:01N 40°47' E 014°06'611.4
2018-Jul-09 09:30N 40°46' E 013°59'2 4.2
2018-Jul-09 09:00N 40°45' E 013°56'1 2.5
2018-Jul-09 08:30N 40°45' E 013°58'611.6
2018-Jul-09 08:00N 40°47' E 014°05'3 6.3
2018-Jul-09 07:30N 40°49' E 014°07'2 3.0
2018-Jul-09 07:00N 40°48' E 014°06'510.3
2018-Jul-09 06:30N 40°46' E 013°60'3 5.9
2018-Jul-09 06:00N 40°45' E 013°56'0 0.0
2018-Jul-09 05:30N 40°45' E 013°56'3 6.5
2018-Jul-09 05:00N 40°46' E 014°00'5 9.8
2018-Jul-09 04:30N 40°48' E 014°06'2 3.1
2018-Jul-09 04:00N 40°49' E 014°07'0 0.2
2018-Jul-09 03:30N 40°49' E 014°07'5 9.1
2018-Jul-09 03:00N 40°46' E 014°02'5 9.5
2018-Jul-09 02:30N 40°45' E 013°56'0 0.1
2018-Jul-09 02:00N 40°45' E 013°56'0 0.1
2018-Jul-09 01:30N 40°45' E 013°56'0 0.0
2018-Jul-09 01:00N 40°45' E 013°56'0 0.0
2018-Jul-09 00:30N 40°45' E 013°56'0 0.0
2018-Jul-09 00:00N 40°45' E 013°56'0 0.0
2018-Jul-08 23:30N 40°45' E 013°56'0 0.0
2018-Jul-08 23:00N 40°45' E 013°56'0 0.0
2018-Jul-08 22:30N 40°45' E 013°56'0 0.0
2018-Jul-08 22:00N 40°45' E 013°56'0 0.0
2018-Jul-08 21:30N 40°45' E 013°56'0 0.0
2018-Jul-08 21:00N 40°45' E 013°56'0 0.0
2018-Jul-08 20:30N 40°45' E 013°56'0 0.0
2018-Jul-08 20:00N 40°45' E 013°56'  
Track history (hours):
 
Tides and Currents Weather Stations Pressure Air Temp Water Temp Dewpoint Dewpoint Depression Visibility Wind Speed Wind Dir Waves Ship Positions

Benito Buono

Last reported at 2018-Jul-18 19:46 UTC. Time now 2018-Jul-18 23:42 UTC.
Position N 40°45' E 013°56'.

Length 74 m; draft 4 m.

Type: Passenger vessel. MMSI: 247007400.

Date/timePositionNaut miles runAvg speedWind from/ knotsBaromVisibWave heightAir tempDewpointWater temp
2018-Jul-18 19:46N 40°45' E 013°56'0 0.2
2018-Jul-18 19:31N 40°45' E 013°56'510.8
2018-Jul-18 19:00N 40°46' E 014°03'4 8.1
2018-Jul-18 18:30N 40°49' E 014°07'0 0.0
2018-Jul-18 18:01N 40°49' E 014°07'1 2.5
2018-Jul-18 17:31N 40°48' E 014°06'510.4
2018-Jul-18 17:00N 40°46' E 013°60'3 6.2
2018-Jul-18 16:31N 40°45' E 013°56'0 0.0
2018-Jul-18 16:00N 40°45' E 013°56'0 0.2
2018-Jul-18 15:30N 40°45' E 013°56'611.2
2018-Jul-18 15:00N 40°47' E 014°04'4 7.8
2018-Jul-18 14:30N 40°49' E 014°07'5 5.2
2018-Jul-18 13:30N 40°46' E 014°01'4 8.3
2018-Jul-18 13:00N 40°45' E 013°56'0 0.1
2018-Jul-18 12:30N 40°45' E 013°56'510.7
2018-Jul-18 12:01N 40°47' E 014°03'4 8.4
2018-Jul-18 11:30N 40°49' E 014°07'0 0.0
2018-Jul-18 10:30N 40°49' E 014°07'1 2.4
2018-Jul-18 10:00N 40°48' E 014°06'510.6
2018-Jul-18 09:30N 40°46' E 013°60'3 6.0
2018-Jul-18 09:00N 40°45' E 013°56'3 6.5
2018-Jul-18 08:30N 40°46' E 014°00'510.0
2018-Jul-18 08:00N 40°48' E 014°06'1 2.9
2018-Jul-18 07:30N 40°49' E 014°07'1 2.2
2018-Jul-18 07:01N 40°49' E 014°06'510.1
2018-Jul-18 06:30N 40°46' E 014°00'3 6.2
2018-Jul-18 05:58N 40°45' E 013°56'0 0.0
2018-Jul-18 05:30N 40°45' E 013°56'2 4.1
2018-Jul-18 05:00N 40°46' E 013°58'611.4
2018-Jul-18 04:30N 40°47' E 014°06'3 5.1
2018-Jul-18 04:00N 40°49' E 014°07'0 0.1
2018-Jul-18 03:30N 40°49' E 014°07'4 8.4
2018-Jul-18 03:00N 40°47' E 014°03'510.6
2018-Jul-18 02:30N 40°45' E 013°56'0 0.0
2018-Jul-17 19:46N 40°45' E 013°56'0 0.1
2018-Jul-17 19:29N 40°45' E 013°56'510.7
2018-Jul-17 19:00N 40°46' E 014°03'4 8.6
2018-Jul-17 18:30N 40°49' E 014°07'0 0.0
2018-Jul-17 17:59N 40°49' E 014°07'3 5.6
2018-Jul-17 17:30N 40°47' E 014°06'612.0
2018-Jul-17 17:00N 40°46' E 013°58'2 3.1
2018-Jul-17 16:27N 40°45' E 013°56'0 0.0
2018-Jul-17 16:00N 40°45' E 013°56'1 1.5
2018-Jul-17 15:29N 40°45' E 013°57'511.1
2018-Jul-17 15:00N 40°47' E 014°04'4 7.1
2018-Jul-17 14:28N 40°49' E 014°07'1 2.9
2018-Jul-17 14:00N 40°48' E 014°06'510.4
2018-Jul-17 13:30N 40°46' E 013°60'3 6.3
2018-Jul-17 13:00N 40°45' E 013°56'0 0.6
2018-Jul-17 12:30N 40°45' E 013°57'511.0
2018-Jul-17 12:00N 40°47' E 014°04'4 7.8
2018-Jul-17 11:30N 40°49' E 014°07'0 0.0
2018-Jul-17 11:01N 40°49' E 014°07'0 0.0
2018-Jul-17 10:30N 40°49' E 014°07'2 3.3
2018-Jul-17 10:00N 40°48' E 014°06'510.5
2018-Jul-17 09:30N 40°46' E 013°60'3 5.8
2018-Jul-17 09:00N 40°45' E 013°56'2 4.9
2018-Jul-17 08:30N 40°46' E 013°59'510.9
2018-Jul-17 08:00N 40°47' E 014°06'2 4.4
2018-Jul-17 07:30N 40°49' E 014°07'1 2.7
2018-Jul-17 07:00N 40°48' E 014°06'510.2
2018-Jul-17 06:30N 40°46' E 014°00'3 6.3
2018-Jul-17 06:00N 40°45' E 013°56'0 0.0
2018-Jul-17 05:30N 40°45' E 013°56'3 6.7
2018-Jul-17 05:00N 40°46' E 014°00'5 9.9
2018-Jul-17 04:30N 40°48' E 014°06'1 2.6
2018-Jul-17 04:00N 40°49' E 014°07'1 1.0
2018-Jul-17 03:30N 40°49' E 014°06'5 9.5
2018-Jul-17 03:00N 40°46' E 014°01'4 8.4
2018-Jul-17 02:30N 40°45' E 013°56'0 0.2
2018-Jul-17 02:00N 40°45' E 013°56'0 0.0
2018-Jul-16 19:45N 40°45' E 013°56'0 0.3
2018-Jul-16 19:30N 40°45' E 013°56'510.5
2018-Jul-16 19:00N 40°47' E 014°03'4 8.5
2018-Jul-16 18:30N 40°49' E 014°07'0 0.0
2018-Jul-16 17:59N 40°49' E 014°07'1 3.1
2018-Jul-16 17:30N 40°48' E 014°06'510.6
2018-Jul-16 17:01N 40°46' E 013°60'3 5.8
2018-Jul-16 16:30N 40°45' E 013°56'0 0.0
2018-Jul-16 16:00N 40°45' E 013°56'0 0.6
2018-Jul-16 15:30N 40°45' E 013°57'611.6
2018-Jul-16 15:00N 40°47' E 014°04'4 7.5
2018-Jul-16 14:30N 40°49' E 014°07'1 1.6
2018-Jul-16 14:00N 40°49' E 014°06'5 9.8
2018-Jul-16 13:30N 40°46' E 014°01'4 7.4
2018-Jul-16 13:00N 40°45' E 013°56'0 0.5
2018-Jul-16 12:30N 40°45' E 013°57'611.1
2018-Jul-16 12:00N 40°47' E 014°04'4 7.8
2018-Jul-16 11:30N 40°49' E 014°07'0 0.0
2018-Jul-16 11:00N 40°49' E 014°07'0 0.0
2018-Jul-16 10:31N 40°49' E 014°07'1 2.3
2018-Jul-16 10:00N 40°48' E 014°06'510.1
2018-Jul-16 09:31N 40°46' E 014°00'3 6.6
2018-Jul-16 09:00N 40°45' E 013°56'2 3.0
2018-Jul-16 08:30N 40°46' E 013°58'611.9
2018-Jul-16 08:01N 40°47' E 014°06'3 6.0
2018-Jul-16 07:30N 40°49' E 014°07'1 2.8
2018-Jul-16 07:00N 40°48' E 014°06'510.3
2018-Jul-16 06:31N 40°46' E 013°60'3 6.2
2018-Jul-16 06:01N 40°45' E 013°56'0 0.0
2018-Jul-16 05:30N 40°45' E 013°56'2 4.5
2018-Jul-16 05:01N 40°46' E 013°59'611.1
2018-Jul-16 04:30N 40°47' E 014°06'2 4.6
2018-Jul-16 04:00N 40°49' E 014°07'0 0.2
2018-Jul-16 03:30N 40°49' E 014°07'4 8.8
2018-Jul-16 03:00N 40°46' E 014°03'510.0
2018-Jul-16 02:30N 40°45' E 013°56'0 0.2
2018-Jul-16 02:00N 40°45' E 013°56'0 0.0
2018-Jul-15 19:55N 40°45' E 013°56'0 0.4
2018-Jul-15 19:30N 40°45' E 013°56'511.1
2018-Jul-15 19:00N 40°46' E 014°03'4 8.2
2018-Jul-15 18:30N 40°49' E 014°07'0 0.0
2018-Jul-15 18:00N 40°49' E 014°07'2 4.4
2018-Jul-15 17:30N 40°47' E 014°06'611.4
2018-Jul-15 17:00N 40°46' E 013°59'2 4.5
2018-Jul-15 16:30N 40°45' E 013°56'0 0.0
2018-Jul-15 16:00N 40°45' E 013°56'0 0.3
2018-Jul-15 15:30N 40°45' E 013°57'611.5
2018-Jul-15 15:00N 40°47' E 014°04'4 7.8
2018-Jul-15 14:30N 40°49' E 014°07'1 1.8
2018-Jul-15 14:00N 40°49' E 014°06'510.0
2018-Jul-15 13:30N 40°46' E 014°00'4 7.0
2018-Jul-15 13:00N 40°45' E 013°56'0 0.1
2018-Jul-15 12:30N 40°45' E 013°56'510.5
2018-Jul-15 12:00N 40°47' E 014°03'4 8.5
2018-Jul-15 11:30N 40°49' E 014°07'0 0.0
2018-Jul-15 11:00N 40°49' E 014°07'0 0.0
2018-Jul-15 10:30N 40°49' E 014°07'2 3.3
2018-Jul-15 10:00N 40°48' E 014°06'510.8
2018-Jul-15 09:30N 40°46' E 013°60'3 5.6
2018-Jul-15 09:00N 40°45' E 013°56'2 4.7
2018-Jul-15 08:30N 40°46' E 013°59'611.0
2018-Jul-15 08:00N 40°48' E 014°06'2 4.1
2018-Jul-15 07:30N 40°49' E 014°07'3 6.1
2018-Jul-15 07:00N 40°47' E 014°06'612.1
2018-Jul-15 06:31N 40°46' E 013°58'2 3.1
2018-Jul-15 06:00N 40°45' E 013°56'0 0.2
2018-Jul-15 05:30N 40°45' E 013°56'0 0.0
2018-Jul-14 19:52N 40°45' E 013°56'0 0.5
2018-Jul-14 19:30N 40°45' E 013°57'611.4
2018-Jul-14 19:00N 40°47' E 014°04'4 7.8
2018-Jul-14 18:30N 40°49' E 014°07'0 0.0
2018-Jul-14 18:00N 40°49' E 014°07'1 2.8
2018-Jul-14 17:30N 40°48' E 014°06'510.7
2018-Jul-14 17:00N 40°46' E 013°60'3 5.9
2018-Jul-14 16:30N 40°45' E 013°56'0 0.0
2018-Jul-14 16:00N 40°45' E 013°56'3 5.7
2018-Jul-14 15:30N 40°46' E 013°60'510.5
2018-Jul-14 15:00N 40°48' E 014°06'1 1.1
2018-Jul-14 14:00N 40°49' E 014°06'5 9.8
2018-Jul-14 13:30N 40°46' E 014°01'4 7.6
2018-Jul-14 13:00N 40°45' E 013°56'1 1.9
2018-Jul-14 12:30N 40°45' E 013°57'611.8
2018-Jul-14 12:00N 40°46' E 014°05'3 6.7
2018-Jul-14 11:30N 40°49' E 014°07'0 0.0
2018-Jul-14 11:00N 40°49' E 014°07'0 0.0
2018-Jul-14 10:30N 40°49' E 014°07'3 6.6
2018-Jul-14 10:00N 40°46' E 014°05'611.8
2018-Jul-14 09:30N 40°45' E 013°57'1 2.0
2018-Jul-14 09:00N 40°45' E 013°56'4 7.3
2018-Jul-14 08:30N 40°46' E 014°01'5 9.7
2018-Jul-14 08:00N 40°49' E 014°06'1 1.7
2018-Jul-14 07:30N 40°49' E 014°07'3 5.0
2018-Jul-14 07:00N 40°47' E 014°06'611.5
2018-Jul-14 06:30N 40°46' E 013°59'2 4.3
2018-Jul-14 06:00N 40°45' E 013°56'0 0.0
2018-Jul-14 05:30N 40°45' E 013°56'2 4.7
2018-Jul-14 05:00N 40°46' E 013°59'611.1
2018-Jul-14 04:30N 40°47' E 014°06'2 4.3
2018-Jul-14 04:00N 40°49' E 014°07'0 0.1
2018-Jul-14 03:30N 40°49' E 014°07'4 8.5
2018-Jul-14 03:00N 40°46' E 014°03'510.5
2018-Jul-14 02:30N 40°45' E 013°56'0 0.2
2018-Jul-14 01:58N 40°45' E 013°56'0 0.0
2018-Jul-13 20:00N 40°45' E 013°56'0 0.1
2018-Jul-13 19:30N 40°45' E 013°56'510.6
2018-Jul-13 19:00N 40°47' E 014°03'4 8.4
2018-Jul-13 18:30N 40°49' E 014°07'0 0.0
2018-Jul-13 18:00N 40°49' E 014°07'1 2.3
2018-Jul-13 17:30N 40°48' E 014°06'510.2
2018-Jul-13 17:00N 40°46' E 014°00'3 6.6
2018-Jul-13 16:30N 40°45' E 013°56'0 0.0
2018-Jul-13 16:00N 40°45' E 013°56'3 5.5
2018-Jul-13 15:30N 40°46' E 013°60'510.5
2018-Jul-13 15:00N 40°48' E 014°06'2 1.8
2018-Jul-13 14:00N 40°49' E 014°07'5 9.5
2018-Jul-13 13:30N 40°46' E 014°02'5 9.0
2018-Jul-13 13:00N 40°45' E 013°56'0 0.1
2018-Jul-13 12:30N 40°45' E 013°56'510.9
2018-Jul-13 12:00N 40°47' E 014°03'4 8.2
2018-Jul-13 11:30N 40°49' E 014°07'0 0.0
2018-Jul-13 11:00N 40°49' E 014°07'0 0.0
2018-Jul-13 10:30N 40°49' E 014°07'4 7.5
2018-Jul-13 10:00N 40°46' E 014°04'611.7
2018-Jul-13 09:30N 40°45' E 013°57'0 0.5
2018-Jul-13 09:00N 40°45' E 013°56'4 7.4
2018-Jul-13 08:30N 40°46' E 014°01'5 9.6
2018-Jul-13 08:01N 40°49' E 014°06'1 1.9
2018-Jul-13 07:30N 40°49' E 014°07'1 2.5
2018-Jul-13 07:00N 40°48' E 014°06'5 9.7
2018-Jul-13 06:30N 40°46' E 014°00'3 7.0
2018-Jul-13 06:00N 40°45' E 013°56'0 0.0
2018-Jul-13 05:30N 40°45' E 013°56'3 6.2
2018-Jul-13 05:01N 40°46' E 013°60'5 9.9
2018-Jul-13 04:30N 40°48' E 014°06'2 3.3
2018-Jul-13 04:00N 40°49' E 014°07'1 1.3
2018-Jul-13 03:30N 40°49' E 014°06'5 9.4
2018-Jul-13 03:00N 40°47' E 014°01'4 7.7
2018-Jul-13 02:29N 40°45' E 013°56'0 0.0
2018-Jul-12 19:52N 40°45' E 013°56'1 1.7
2018-Jul-12 19:30N 40°45' E 013°57'611.7
2018-Jul-12 19:00N 40°47' E 014°04'4 7.0
2018-Jul-12 18:30N 40°49' E 014°07'0 0.0
2018-Jul-12 18:00N 40°49' E 014°07'1 2.0
2018-Jul-12 17:30N 40°49' E 014°06'510.2
2018-Jul-12 16:59N 40°46' E 013°60'3 6.6
2018-Jul-12 16:30N 40°45' E 013°56'0 0.0
2018-Jul-12 16:00N 40°45' E 013°56'0 0.1
2018-Jul-12 15:30N 40°45' E 013°56'510.6
2018-Jul-12 15:00N 40°47' E 014°03'4 8.4
2018-Jul-12 14:30N 40°49' E 014°07'1 2.0
2018-Jul-12 14:00N 40°49' E 014°06'510.0
2018-Jul-12 13:30N 40°46' E 014°00'4 7.0
2018-Jul-12 13:00N 40°45' E 013°56'3 6.5
2018-Jul-12 12:30N 40°46' E 014°00'510.2
2018-Jul-12 12:00N 40°48' E 014°06'1 2.1
2018-Jul-12 11:30N 40°49' E 014°07'0 0.0
2018-Jul-12 11:00N 40°49' E 014°07'0 0.0
2018-Jul-12 10:30N 40°49' E 014°07'1 2.2
2018-Jul-12 10:01N 40°48' E 014°06'5 9.9
2018-Jul-12 09:30N 40°46' E 014°00'3 6.7
2018-Jul-12 09:00N 40°45' E 013°56'2 3.0
2018-Jul-12 08:30N 40°46' E 013°58'611.8
2018-Jul-12 08:00N 40°47' E 014°06'3 6.1
2018-Jul-12 07:30N 40°49' E 014°07'1 2.3
2018-Jul-12 07:00N 40°48' E 014°06'510.3
2018-Jul-12 06:29N 40°46' E 013°60'3 6.3
2018-Jul-12 06:00N 40°45' E 013°56'0 0.0
2018-Jul-12 05:30N 40°45' E 013°56'2 3.9
2018-Jul-12 05:00N 40°46' E 013°58'611.5
2018-Jul-12 04:30N 40°47' E 014°06'3 5.3
2018-Jul-12 04:00N 40°49' E 014°07'0 0.2
2018-Jul-12 03:30N 40°49' E 014°07'5 9.4
2018-Jul-12 03:00N 40°46' E 014°02'5 8.5
2018-Jul-12 02:28N 40°45' E 013°56'0 0.0
2018-Jul-11 19:39N 40°45' E 013°56'0 0.1
2018-Jul-11 19:28N 40°45' E 013°56'511.3
2018-Jul-11 19:00N 40°47' E 014°03'4 6.8
2018-Jul-11 18:23N 40°49' E 014°07'0 0.0
2018-Jul-11 17:55N 40°49' E 014°07'1 2.3
2018-Jul-11 17:30N 40°49' E 014°06'610.3
2018-Jul-11 16:57N 40°46' E 013°60'3 6.1
2018-Jul-11 16:29N 40°45' E 013°56'0 0.0
2018-Jul-11 15:59N 40°45' E 013°56'0 0.1
2018-Jul-11 15:30N 40°45' E 013°56'611.2
2018-Jul-11 15:00N 40°47' E 014°03'4 7.5
2018-Jul-11 14:28N 40°49' E 014°07'2 3.6
2018-Jul-11 14:00N 40°48' E 014°06'510.9
2018-Jul-11 13:30N 40°46' E 013°59'3 5.4
2018-Jul-11 13:00N 40°45' E 013°56'0 0.6
2018-Jul-11 12:30N 40°45' E 013°57'611.6
2018-Jul-11 12:00N 40°47' E 014°04'4 7.4
2018-Jul-11 11:30N 40°49' E 014°07'0 0.0
2018-Jul-11 11:00N 40°49' E 014°07'0 0.0
2018-Jul-11 10:30N 40°49' E 014°07'2 3.4
2018-Jul-11 10:00N 40°48' E 014°06'510.7
2018-Jul-11 09:30N 40°46' E 013°59'3 5.5
2018-Jul-11 09:00N 40°45' E 013°56'2 3.5
2018-Jul-11 08:30N 40°46' E 013°58'611.5
2018-Jul-11 08:00N 40°47' E 014°06'3 5.8
2018-Jul-11 07:30N 40°49' E 014°07'1 1.9
2018-Jul-11 07:00N 40°49' E 014°06'5 9.9
2018-Jul-11 06:30N 40°46' E 014°00'4 7.1
2018-Jul-11 06:00N 40°45' E 013°56'0 0.0
2018-Jul-11 05:30N 40°45' E 013°56'2 4.5
2018-Jul-11 05:00N 40°46' E 013°59'611.1
2018-Jul-11 04:30N 40°47' E 014°06'2 4.7
2018-Jul-11 04:00N 40°49' E 014°07'0 0.9
2018-Jul-11 03:30N 40°49' E 014°06'5 9.6
2018-Jul-11 03:00N 40°47' E 014°01'4 8.4
2018-Jul-11 02:30N 40°45' E 013°56'0 0.2
2018-Jul-11 02:00N 40°45' E 013°56'0 0.0
2018-Jul-10 19:50N 40°45' E 013°56'1 1.4
2018-Jul-10 19:28N 40°45' E 013°57'611.9
2018-Jul-10 19:00N 40°47' E 014°04'4 6.9
2018-Jul-10 18:28N 40°49' E 014°07'0 0.0
2018-Jul-10 17:59N 40°49' E 014°07'1 2.8
2018-Jul-10 17:30N 40°48' E 014°06'510.7
2018-Jul-10 17:00N 40°46' E 013°60'3 5.8
2018-Jul-10 16:30N 40°45' E 013°56'0 0.0
2018-Jul-10 16:00N 40°45' E 013°56'0 0.1
2018-Jul-10 15:30N 40°45' E 013°56'611.5
2018-Jul-10 15:00N 40°46' E 014°04'4 8.0
2018-Jul-10 14:30N 40°49' E 014°07'0 0.3
2018-Jul-10 14:00N 40°49' E 014°07'5 9.9
2018-Jul-10 13:30N 40°46' E 014°02'4 8.8
2018-Jul-10 13:00N 40°45' E 013°56'0 0.1
2018-Jul-10 12:30N 40°45' E 013°56'510.4
2018-Jul-10 12:00N 40°47' E 014°03'4 8.4
2018-Jul-10 11:30N 40°49' E 014°07'0 0.0
2018-Jul-10 11:00N 40°49' E 014°07'0 0.0
2018-Jul-10 10:30N 40°49' E 014°07'2 3.3
2018-Jul-10 10:00N 40°48' E 014°06'510.7
2018-Jul-10 09:30N 40°46' E 013°59'3 5.6
2018-Jul-10 09:00N 40°45' E 013°56'2 4.5
2018-Jul-10 08:30N 40°46' E 013°59'511.0
2018-Jul-10 08:00N 40°47' E 014°06'2 4.7
2018-Jul-10 07:30N 40°49' E 014°07'1 1.8
2018-Jul-10 07:00N 40°49' E 014°06'510.0
2018-Jul-10 06:30N 40°46' E 014°01'4 7.0
2018-Jul-10 06:00N 40°45' E 013°56'0 0.0
2018-Jul-10 05:30N 40°45' E 013°56'2 4.4
2018-Jul-10 05:00N 40°46' E 013°59'611.1
2018-Jul-10 04:30N 40°47' E 014°06'3 5.1
2018-Jul-10 04:00N 40°49' E 014°07'0 0.3
2018-Jul-10 03:30N 40°49' E 014°07'5 9.6
2018-Jul-10 03:00N 40°47' E 014°02'4 8.2
2018-Jul-10 02:28N 40°45' E 013°56'0 0.0
2018-Jul-09 19:43N 40°45' E 013°56'0 0.1
2018-Jul-09 19:30N 40°45' E 013°56'510.8
2018-Jul-09 19:00N 40°47' E 014°03'4 8.4
2018-Jul-09 18:30N 40°49' E 014°07'0 0.0
2018-Jul-09 18:00N 40°49' E 014°07'1 1.8
2018-Jul-09 17:30N 40°49' E 014°06'510.0
2018-Jul-09 17:00N 40°46' E 014°00'4 7.1
2018-Jul-09 16:30N 40°45' E 013°56'0 0.0
2018-Jul-09 16:00N 40°45' E 013°56'0 0.1
2018-Jul-09 15:30N 40°45' E 013°56'510.8
2018-Jul-09 15:00N 40°47' E 014°03'4 8.4
2018-Jul-09 14:31N 40°49' E 014°07'1 1.1
2018-Jul-09 14:00N 40°49' E 014°06'510.0
2018-Jul-09 13:30N 40°46' E 014°01'4 7.6
2018-Jul-09 13:00N 40°45' E 013°56'0 0.1
2018-Jul-09 12:30N 40°45' E 013°56'611.2
2018-Jul-09 12:00N 40°47' E 014°03'4 7.9
2018-Jul-09 11:31N 40°49' E 014°07'0 0.0
2018-Jul-09 10:59N 40°49' E 014°07'0 0.0
2018-Jul-09 10:30N 40°49' E 014°07'2 4.6
2018-Jul-09 10:01N 40°47' E 014°06'611.4
2018-Jul-09 09:30N 40°46' E 013°59'2 4.2
2018-Jul-09 09:00N 40°45' E 013°56'1 2.5
2018-Jul-09 08:30N 40°45' E 013°58'611.6
2018-Jul-09 08:00N 40°47' E 014°05'3 6.3
2018-Jul-09 07:30N 40°49' E 014°07'2 3.0
2018-Jul-09 07:00N 40°48' E 014°06'510.3
2018-Jul-09 06:30N 40°46' E 013°60'3 5.9
2018-Jul-09 06:00N 40°45' E 013°56'0 0.0
2018-Jul-09 05:30N 40°45' E 013°56'3 6.5
2018-Jul-09 05:00N 40°46' E 014°00'5 9.8
2018-Jul-09 04:30N 40°48' E 014°06'2 3.1
2018-Jul-09 04:00N 40°49' E 014°07'0 0.2
2018-Jul-09 03:30N 40°49' E 014°07'5 9.1
2018-Jul-09 03:00N 40°46' E 014°02'5 9.5
2018-Jul-09 02:30N 40°45' E 013°56'0 0.1
2018-Jul-09 02:00N 40°45' E 013°56'0 0.1
2018-Jul-09 01:30N 40°45' E 013°56'0 0.0
2018-Jul-09 01:00N 40°45' E 013°56'0 0.0
2018-Jul-09 00:30N 40°45' E 013°56'0 0.0
2018-Jul-09 00:00N 40°45' E 013°56'0 0.0
2018-Jul-08 23:30N 40°45' E 013°56'0 0.0
2018-Jul-08 23:00N 40°45' E 013°56'0 0.0
2018-Jul-08 22:30N 40°45' E 013°56'0 0.0
2018-Jul-08 22:00N 40°45' E 013°56'0 0.0
2018-Jul-08 21:30N 40°45' E 013°56'0 0.0
2018-Jul-08 21:00N 40°45' E 013°56'0 0.0
2018-Jul-08 20:30N 40°45' E 013°56'0 0.0
2018-Jul-08 20:00N 40°45' E 013°56'  

Dump ship's entire track history